Cape May County Airport Wildwood US
ICAO: KWWD
IATA: WWD
Category: Medium
Scheduled Services: No

Elevation: 23 ft
TransAlt. 18000 ft.

Airport Communications:
APP/DEP:124.6
AWOS 3:118.275
CLNC DEL:121.7
CTAF/UNICOM:122.7

KWWD Zoom In..

If you have problems with the map follow the link
https://www.worldairports.se/pages/airport.php?
ICAO=KWWD

Runways:

(A) RW 01 length 5003 ft width 150 ft
LOC 108.90 / hdg 10

(B) RW 10 length 4998 ft width 150 ft
LOC 108.90 / hdg 100

(C) RW 19 length 5003 ft width 150 ft
LOC 108.90 / hdg 190

(D) RW 28 length 4998 ft width 150 ft
LOC 108.90 / hdg 280

Location; KWWD
Day. 19 / Time. 17.56 Zulu
* Altimeter: 30.29
* Temperature: 07° c. 44.6°f.
* Wind from: 300° Speed 12 kn with Gusts up to 18 kn.
Dewpoint: -03° c.
Visibility: 10 Statute Miles.
Clouds: Clear (automated report).

KWWD 191756Z AUTO 30012G18KT 10SM CLR 07/M03 A3029 RMK AO2 SLP260 T00721033 10072 20067 50001


Wind From 300°
Speed 12 kn.

 
 
jpsmedia worldairports.se 2020   terms of use